Time;durP1;ratioP1;P1;durP2;ratioP2;P2;SDS_P1;SDS_P2;PMS_P1;PMS_P2;Temp;Humidity;BMP_temperature;BMP_pressure;BME280_temperature;BME280_humidity;BME280_pressure;Samples;Min_cycle;Max_cycle;Signal;HPM_P1;HPM_P2
2022/07/27 00:00:06;;;;;;;0.47;0.47;;;;;;;31.74;25.51;98006.13;5065523;28;20056;-77
2022/07/27 00:02:32;;;;;;;0.57;0.57;;;;;;;31.81;25.11;98005.75;5069425;28;20046;-77
2022/07/27 00:04:59;;;;;;;0.40;0.40;;;;;;;31.58;24.41;97998.09;5068497;28;20083;-77
2022/07/27 00:07:25;;;;;;;0.70;0.40;;;;;;;31.18;25.23;97997.81;5073838;28;20032;-77
2022/07/27 00:09:51;;;;;;;0.35;0.35;;;;;;;31.00;25.14;97993.03;5069253;28;20028;-77
2022/07/27 00:12:17;;;;;;;0.38;0.38;;;;;;;31.11;24.88;97995.34;5073122;28;20496;-77
2022/07/27 00:14:43;;;;;;;0.40;0.40;;;;;;;31.29;24.89;97995.19;5073726;28;20043;-77
2022/07/27 00:17:09;;;;;;;0.43;0.43;;;;;;;31.36;24.77;97989.13;5069708;28;20504;-77
2022/07/27 00:19:35;;;;;;;0.40;0.40;;;;;;;31.43;24.63;97983.13;5070280;28;20078;-76
2022/07/27 00:22:02;;;;;;;0.20;0.20;;;;;;;31.31;24.78;97984.13;5071541;28;20032;-76
2022/07/27 00:24:28;;;;;;;0.28;0.28;;;;;;;31.39;24.43;97999.53;5072918;28;20170;-77
2022/07/27 00:26:54;;;;;;;0.40;0.40;;;;;;;31.15;25.14;97993.09;5072136;28;20025;-76
2022/07/27 00:29:20;;;;;;;0.40;0.40;;;;;;;30.94;25.40;98002.69;5076302;28;20037;-77
2022/07/27 00:31:46;;;;;;;0.98;0.98;;;;;;;30.80;25.52;97998.50;5072628;28;20082;-76
2022/07/27 00:34:12;;;;;;;0.40;0.40;;;;;;;31.01;25.34;98005.97;5074652;28;20041;-77
2022/07/27 00:36:38;;;;;;;0.32;0.32;;;;;;;31.19;24.89;97999.38;5075255;28;20507;-77
2022/07/27 00:39:04;;;;;;;2.05;0.28;;;;;;;31.30;25.32;98000.38;5075381;28;20027;-77
2022/07/27 00:41:30;;;;;;;0.40;0.40;;;;;;;31.26;25.26;98002.63;5074583;28;20028;-77
2022/07/27 00:43:58;;;;;;;0.40;0.40;;;;;;;31.40;24.79;98003.91;5076546;28;20078;-76
2022/07/27 00:46:26;;;;;;;16.00;2.35;;;;;;;31.48;24.33;98004.34;5076321;28;20431;-77
2022/07/27 00:48:52;;;;;;;0.30;0.30;;;;;;;31.45;24.00;98000.44;5072592;28;20477;-76
2022/07/27 00:51:20;;;;;;;0.30;0.30;;;;;;;30.68;24.97;98006.00;5069789;28;20096;-77
2022/07/27 00:53:47;;;;;;;0.30;0.28;;;;;;;30.53;25.05;98002.28;5069527;28;20082;-76
2022/07/27 00:56:14;;;;;;;0.30;0.30;;;;;;;30.70;25.44;98000.63;5071718;28;20028;-76
2022/07/27 00:58:43;;;;;;;0.30;0.30;;;;;;;30.85;25.27;98002.72;5068723;28;20445;-77
2022/07/27 01:01:09;;;;;;;0.50;0.50;;;;;;;31.04;25.06;98004.97;5071988;28;20396;-76
2022/07/27 01:03:35;;;;;;;0.30;0.30;;;;;;;31.16;24.78;98008.84;5071211;28;20044;-76
2022/07/27 01:06:02;;;;;;;0.57;0.57;;;;;;;31.20;24.58;98006.63;5072760;28;20566;-77
2022/07/27 01:08:28;;;;;;;0.40;0.40;;;;;;;31.32;24.69;98012.00;5065123;28;20029;-77
2022/07/27 01:10:56;;;;;;;0.30;0.30;;;;;;;30.84;24.98;98016.13;5071526;28;20436;-77
2022/07/27 01:13:25;;;;;;;0.22;0.22;;;;;;;30.94;25.03;98009.16;5071871;28;20488;-77
2022/07/27 01:15:51;;;;;;;0.17;0.17;;;;;;;30.95;24.62;98015.63;5071564;28;20028;-76
2022/07/27 01:18:33;;;;;;;0.95;0.47;;;;;;;31.04;24.71;98007.06;5072279;28;20128;-76
2022/07/27 01:21:01;;;;;;;0.20;0.20;;;;;;;31.26;24.12;98016.00;5071409;28;20071;-76
2022/07/27 01:23:31;;;;;;;0.30;0.30;;;;;;;31.27;24.35;98004.16;5071922;28;20029;-76
2022/07/27 01:25:58;;;;;;;0.60;0.60;;;;;;;30.90;24.14;97994.38;5079124;28;20115;-76
2022/07/27 01:28:25;;;;;;;0.30;0.20;;;;;;;30.78;24.43;98004.66;5069965;28;20032;-76
2022/07/27 01:30:51;;;;;;;0.20;0.20;;;;;;;30.62;24.67;98004.31;5070588;28;20481;-76
2022/07/27 01:33:17;;;;;;;0.30;0.30;;;;;;;30.75;24.48;97997.13;5072451;28;20051;-76
2022/07/27 01:35:43;;;;;;;0.35;0.35;;;;;;;30.43;24.46;97999.97;5072225;28;20056;-77
2022/07/27 01:38:11;;;;;;;0.38;0.38;;;;;;;30.23;25.20;97996.88;5073297;28;20032;-76
2022/07/27 01:40:38;;;;;;;0.40;0.40;;;;;;;30.45;25.32;97997.44;5073110;28;20028;-76
2022/07/27 01:43:05;;;;;;;0.30;0.30;;;;;;;30.50;24.92;97991.91;5071292;28;20083;-76
2022/07/27 01:45:31;;;;;;;0.25;0.25;;;;;;;30.00;25.64;97998.38;5070972;28;20032;-76
2022/07/27 01:47:57;;;;;;;0.20;0.20;;;;;;;29.75;26.17;98004.41;5071566;28;20108;-76
2022/07/27 01:50:23;;;;;;;0.40;0.30;;;;;;;29.96;26.20;98007.06;5069416;28;20032;-76
2022/07/27 01:52:49;;;;;;;0.30;0.30;;;;;;;30.22;25.92;98003.81;5068193;28;20036;-76
2022/07/27 01:55:15;;;;;;;0.30;0.30;;;;;;;30.63;25.35;97997.34;5048766;28;20396;-77
2022/07/27 01:57:41;;;;;;;0.40;0.40;;;;;;;30.93;24.73;97989.78;5068363;28;20124;-76
2022/07/27 02:00:10;;;;;;;0.30;0.30;;;;;;;31.09;24.25;97989.34;5068801;28;20052;-77
2022/07/27 02:02:37;;;;;;;0.40;0.40;;;;;;;30.83;23.79;97989.03;5070182;28;20033;-76
2022/07/27 02:05:03;;;;;;;0.30;0.30;;;;;;;30.33;24.44;97993.56;5070684;28;20036;-77
2022/07/27 02:07:29;;;;;;;0.20;0.20;;;;;;;30.16;24.54;98002.88;5071706;28;20052;-77
2022/07/27 02:09:55;;;;;;;0.20;0.20;;;;;;;30.06;25.18;98002.91;5070471;28;20032;-76
2022/07/27 02:12:37;;;;;;;0.30;0.30;;;;;;;30.34;24.91;98000.78;5053663;28;20056;-77
2022/07/27 02:15:12;;;;;;;0.20;0.20;;;;;;;30.52;24.41;97997.88;5070413;28;20063;-76
2022/07/27 02:17:39;;;;;;;0.20;0.20;;;;;;;30.69;24.77;98004.72;5070188;28;20040;-76
2022/07/27 02:20:07;;;;;;;0.20;0.20;;;;;;;30.73;24.35;97996.81;5071225;28;20115;-76
2022/07/27 02:22:33;;;;;;;0.47;0.35;;;;;;;30.61;24.33;97997.03;5069629;28;20024;-76
2022/07/27 02:25:00;;;;;;;0.30;0.30;;;;;;;30.78;23.98;97995.38;5069571;28;20036;-76
2022/07/27 02:27:26;;;;;;;0.25;0.25;;;;;;;30.97;23.85;97991.16;5044289;28;20083;-76
2022/07/27 02:29:52;;;;;;;0.20;0.20;;;;;;;31.01;23.86;97996.66;5067754;28;20525;-76
2022/07/27 02:32:19;;;;;;;0.20;0.20;;;;;;;31.12;23.84;98002.56;5070964;28;20056;-76
2022/07/27 02:34:45;;;;;;;0.28;0.28;;;;;;;31.24;24.25;98005.16;5071067;28;20388;-76
2022/07/27 02:37:12;;;;;;;0.30;0.30;;;;;;;31.18;25.16;98009.91;5059789;28;20116;-76
2022/07/27 02:39:38;;;;;;;0.35;0.35;;;;;;;31.23;24.74;98005.63;5071962;28;20040;-76
2022/07/27 02:42:04;;;;;;;0.40;0.40;;;;;;;31.13;24.24;98012.66;5073196;28;20033;-76
2022/07/27 02:44:31;;;;;;;0.40;0.40;;;;;;;31.04;24.65;98013.50;5073092;28;20033;-76
2022/07/27 02:46:57;;;;;;;0.40;0.40;;;;;;;31.02;24.75;98006.72;5073435;28;20043;-76
2022/07/27 02:49:23;;;;;;;0.40;0.40;;;;;;;31.11;24.22;98018.78;5073003;28;20122;-76
2022/07/27 02:51:50;;;;;;;0.85;0.30;;;;;;;30.78;24.29;98016.00;5064665;28;20033;-76
2022/07/27 02:54:18;;;;;;;0.47;0.30;;;;;;;30.63;24.65;98022.84;5072685;28;20032;-76
2022/07/27 02:56:44;;;;;;;0.32;0.20;;;;;;;30.50;24.33;98017.41;5073109;28;20388;-76
2022/07/27 02:59:10;;;;;;;0.30;0.30;;;;;;;30.39;24.52;98027.69;5072785;28;20040;-76
2022/07/27 03:01:36;;;;;;;0.30;0.30;;;;;;;30.45;24.43;98025.78;5059823;28;20442;-76
2022/07/27 03:04:03;;;;;;;1.10;0.30;;;;;;;30.34;24.05;98034.03;5070360;28;20075;-76
2022/07/27 03:06:29;;;;;;;0.20;0.20;;;;;;;30.32;24.42;98034.44;5070368;28;20024;-76
2022/07/27 03:08:55;;;;;;;0.20;0.20;;;;;;;30.34;24.42;98040.44;5069947;28;20390;-76
2022/07/27 03:11:21;;;;;;;0.40;0.40;;;;;;;30.53;24.03;98039.13;5069534;28;20068;-76
2022/07/27 03:13:47;;;;;;;0.30;0.30;;;;;;;30.59;24.29;98039.25;5070551;28;20032;-76
2022/07/27 03:16:13;;;;;;;0.75;0.20;;;;;;;30.86;23.79;98036.28;5067606;28;20493;-76
2022/07/27 03:18:39;;;;;;;0.30;0.30;;;;;;;31.04;23.38;98041.84;5072175;28;20570;-76
2022/07/27 03:21:06;;;;;;;0.30;0.30;;;;;;;31.10;23.59;98036.31;5073521;28;20059;-76
2022/07/27 03:23:33;;;;;;;0.45;0.30;;;;;;;30.90;23.17;98039.72;5056186;28;20115;-76
2022/07/27 03:25:59;;;;;;;0.68;0.25;;;;;;;30.52;23.85;98033.94;5068266;28;20056;-76
2022/07/27 03:28:25;;;;;;;0.30;0.30;;;;;;;30.38;23.91;98040.28;5073900;28;20040;-76
2022/07/27 03:30:51;;;;;;;0.30;0.30;;;;;;;30.11;23.98;98043.19;5073565;28;20032;-76
2022/07/27 03:33:17;;;;;;;0.20;0.20;;;;;;;30.09;24.44;98044.44;5074809;28;20033;-76
2022/07/27 03:35:43;;;;;;;0.15;0.15;;;;;;;30.19;24.54;98044.41;5074080;28;20438;-76
2022/07/27 03:38:09;;;;;;;0.30;0.30;;;;;;;30.55;23.99;98033.75;5081473;28;20104;-76
2022/07/27 03:40:36;;;;;;;0.20;0.20;;;;;;;30.45;23.82;98040.75;5066884;28;20040;-76
2022/07/27 03:43:02;;;;;;;0.30;0.20;;;;;;;30.19;24.52;98052.91;5060873;28;20153;-76
2022/07/27 03:45:28;;;;;;;1.98;0.25;;;;;;;30.64;24.04;98047.13;5052227;28;20036;-76
2022/07/27 03:47:54;;;;;;;0.30;0.30;;;;;;;31.00;23.94;98046.13;5066995;28;20028;-76
2022/07/27 03:50:21;;;;;;;0.30;0.30;;;;;;;31.20;23.62;98040.66;5073289;28;20392;-76
2022/07/27 03:52:48;;;;;;;0.50;0.30;;;;;;;31.00;24.04;98041.25;5073269;28;20117;-75
2022/07/27 03:55:14;;;;;;;0.32;0.30;;;;;;;31.18;24.07;98049.63;5072629;28;20070;-76
2022/07/27 03:57:40;;;;;;;0.55;0.30;;;;;;;31.65;24.19;98045.22;5074620;28;20044;-75
2022/07/27 04:00:11;;;;;;;0.30;0.30;;;;;;;31.89;23.57;98055.22;5075753;28;20500;-75
2022/07/27 04:02:37;;;;;;;0.40;0.35;;;;;;;31.76;23.79;98054.72;5054118;28;20029;-75
2022/07/27 04:05:04;;;;;;;0.35;0.35;;;;;;;31.60;24.04;98048.72;5052888;28;20111;-76
2022/07/27 04:07:30;;;;;;;0.30;0.30;;;;;;;31.59;24.92;98053.63;5075870;28;20024;-75
2022/07/27 04:09:56;;;;;;;0.30;0.30;;;;;;;32.25;24.91;98056.94;5075979;28;20036;-76
2022/07/27 04:12:22;;;;;;;0.20;0.20;;;;;;;32.64;24.71;98060.44;5075267;28;20044;-76
2022/07/27 04:14:48;;;;;;;0.30;0.30;;;;;;;32.90;24.96;98063.41;5076184;28;20100;-77
2022/07/27 04:17:14;;;;;;;0.20;0.20;;;;;;;33.11;23.77;98062.97;5075098;28;20071;-77
2022/07/27 04:19:40;;;;;;;1.63;0.50;;;;;;;32.98;23.99;98062.50;5076136;28;20090;-76
2022/07/27 04:22:06;;;;;;;0.40;0.40;;;;;;;32.85;24.32;98053.53;5075232;28;20488;-76
2022/07/27 04:24:32;;;;;;;0.30;0.30;;;;;;;32.83;24.88;98053.22;5057323;28;20489;-76
2022/07/27 04:26:58;;;;;;;0.30;0.30;;;;;;;32.97;24.34;98060.94;5055800;28;20415;-76
2022/07/27 04:29:24;;;;;;;0.20;0.20;;;;;;;32.47;24.61;98056.50;5068585;28;20495;-76
2022/07/27 04:31:51;;;;;;;0.30;0.28;;;;;;;32.30;25.42;98066.84;5075529;28;20050;-76
2022/07/27 04:34:17;;;;;;;0.32;0.32;;;;;;;32.55;25.36;98069.09;5075119;28;20086;-76
2022/07/27 04:36:43;;;;;;;0.38;0.38;;;;;;;32.57;25.61;98064.47;5075738;28;20056;-76
2022/07/27 04:39:09;;;;;;;0.40;0.40;;;;;;;32.75;25.84;98067.06;5075511;28;20459;-76
2022/07/27 04:41:36;;;;;;;3.22;0.30;;;;;;;32.99;24.80;98060.44;5070258;28;20075;-76
2022/07/27 04:44:02;;;;;;;0.30;0.30;;;;;;;32.93;25.60;98066.03;5068058;28;20033;-76
2022/07/27 04:46:28;;;;;;;0.30;0.30;;;;;;;32.99;26.31;98066.91;5073410;28;20044;-76
2022/07/27 04:48:55;;;;;;;0.40;0.40;;;;;;;33.14;25.90;98064.81;5064062;28;20040;-77
2022/07/27 04:51:21;;;;;;;1.02;0.60;;;;;;;33.25;26.34;98070.66;5071164;28;20071;-77
2022/07/27 04:53:47;;;;;;;0.57;0.57;;;;;;;33.29;26.64;98071.22;5072279;28;20064;-77
2022/07/27 04:56:14;;;;;;;0.95;0.40;;;;;;;33.32;26.35;98075.16;5074868;28;20047;-76
2022/07/27 04:58:40;;;;;;;0.40;0.40;;;;;;;33.79;25.82;98066.19;5067687;28;20044;-76
2022/07/27 05:01:06;;;;;;;4.13;0.45;;;;;;;33.19;26.93;98074.69;5069564;28;20036;-76
2022/07/27 05:03:32;;;;;;;0.40;0.40;;;;;;;33.20;26.65;98082.75;5074655;28;20090;-76
2022/07/27 05:05:58;;;;;;;0.30;0.30;;;;;;;33.59;26.80;98083.28;5076056;28;20028;-76
2022/07/27 05:08:24;;;;;;;0.28;0.28;;;;;;;34.23;26.02;98082.97;5070697;28;20067;-76
2022/07/27 05:10:50;;;;;;;0.40;0.40;;;;;;;34.60;26.00;98083.84;5070278;28;20488;-77
2022/07/27 05:13:16;;;;;;;1.85;1.30;;;;;;;34.90;25.20;98074.97;5073696;28;20043;-76
2022/07/27 05:15:42;;;;;;;1.40;1.08;;;;;;;35.03;24.65;98078.22;5072941;28;20499;-75
2022/07/27 05:18:08;;;;;;;1.30;0.60;;;;;;;35.10;25.41;98075.66;5074659;28;20159;-74
2022/07/27 05:20:34;;;;;;;0.65;0.50;;;;;;;35.33;25.10;98068.78;5056816;28;20067;-75
2022/07/27 05:23:00;;;;;;;0.98;0.68;;;;;;;35.46;25.21;98073.22;5074050;28;20033;-75
2022/07/27 05:25:26;;;;;;;0.60;0.60;;;;;;;35.69;25.03;98077.78;5056490;28;20033;-75
2022/07/27 05:27:53;;;;;;;1.88;0.77;;;;;;;35.78;24.94;98081.19;5074479;28;20070;-75
2022/07/27 05:30:20;;;;;;;0.75;0.75;;;;;;;35.87;24.83;98078.09;5074922;28;20035;-74
2022/07/27 05:32:47;;;;;;;1.85;0.80;;;;;;;35.89;24.71;98080.44;5074709;28;20383;-75
2022/07/27 05:35:13;;;;;;;0.82;0.80;;;;;;;35.84;25.69;98087.72;5069689;28;20044;-74
2022/07/27 05:37:39;;;;;;;1.05;0.80;;;;;;;35.86;24.54;98085.13;5063837;28;20112;-74
2022/07/27 05:40:07;;;;;;;0.93;0.93;;;;;;;36.01;25.52;98084.94;5056903;28;20064;-75
2022/07/27 05:42:34;;;;;;;1.65;0.82;;;;;;;36.12;24.70;98087.81;5060417;28;20028;-75
2022/07/27 05:45:00;;;;;;;1.20;1.00;;;;;;;36.17;24.44;98086.25;5074344;28;20115;-74
2022/07/27 05:47:26;;;;;;;1.10;0.93;;;;;;;36.25;24.54;98090.13;5058766;28;20037;-74
2022/07/27 05:49:52;;;;;;;2.00;0.90;;;;;;;36.16;24.71;98093.25;5054230;28;20547;-74
2022/07/27 05:52:19;;;;;;;1.70;1.60;;;;;;;35.77;24.03;98093.91;5053793;28;20095;-75
2022/07/27 05:54:46;;;;;;;1.38;1.27;;;;;;;35.52;25.20;98089.16;5054109;28;20488;-75
2022/07/27 05:57:14;;;;;;;2.00;1.60;;;;;;;35.52;25.27;98106.28;5069517;28;20094;-75
2022/07/27 05:59:40;;;;;;;3.13;1.27;;;;;;;35.63;25.56;98097.75;5056419;28;20040;-75
2022/07/27 06:02:07;;;;;;;1.58;1.30;;;;;;;35.95;25.80;98099.16;5074018;28;20040;-74
2022/07/27 06:04:34;;;;;;;1.42;1.27;;;;;;;36.22;25.20;98094.06;5074013;28;20024;-75
2022/07/27 06:09:45;;;;;;;1.90;1.65;;;;;;;36.31;24.85;98097.44;5073884;28;20039;-74
2022/07/27 06:12:11;;;;;;;1.92;1.50;;;;;;;36.19;25.38;98104.44;5073905;28;20044;-74
2022/07/27 06:14:37;;;;;;;4.97;1.42;;;;;;;36.38;25.56;98104.72;5073902;28;20036;-74
2022/07/27 06:17:04;;;;;;;1.52;1.23;;;;;;;36.57;25.11;98109.44;5073596;28;20024;-75
2022/07/27 06:19:30;;;;;;;2.30;1.23;;;;;;;36.82;25.81;98112.56;5073943;28;20029;-75
2022/07/27 06:21:57;;;;;;;1.67;1.58;;;;;;;36.57;24.99;98125.84;5073103;28;20029;-75
2022/07/27 06:24:23;;;;;;;2.65;1.50;;;;;;;36.48;25.37;98124.00;5055687;28;20036;-75
2022/07/27 06:26:49;;;;;;;2.97;1.58;;;;;;;36.03;25.78;98126.00;5073662;28;20111;-75
2022/07/27 06:29:15;;;;;;;2.92;2.38;;;;;;;34.42;28.30;98129.03;5073876;28;20439;-75
2022/07/27 06:31:41;;;;;;;6.70;3.20;;;;;;;34.27;27.25;98134.84;5073408;28;20055;-75
2022/07/27 06:34:07;;;;;;;6.55;3.47;;;;;;;34.14;27.55;98128.75;5073227;28;20044;-75
2022/07/27 06:36:33;;;;;;;3.05;2.83;;;;;;;33.53;28.09;98124.38;5073025;28;20024;-75
2022/07/27 06:38:59;;;;;;;7.65;4.18;;;;;;;33.66;27.58;98124.78;5059545;28;20025;-75
2022/07/27 06:41:25;;;;;;;4.80;3.33;;;;;;;33.66;28.13;98130.47;5053311;28;20508;-75
2022/07/27 06:43:51;;;;;;;3.40;3.08;;;;;;;33.84;28.32;98133.06;5068983;28;20056;-75
2022/07/27 06:46:18;;;;;;;4.43;3.03;;;;;;;33.92;28.29;98126.41;5073316;28;20058;-75
2022/07/27 06:48:44;;;;;;;8.02;4.20;;;;;;;34.03;27.70;98115.16;5072861;28;20064;-75
2022/07/27 06:51:10;;;;;;;6.95;3.83;;;;;;;34.17;27.21;98122.03;5072497;28;20086;-75
2022/07/27 06:53:36;;;;;;;5.63;4.90;;;;;;;34.32;27.23;98121.91;5072870;28;20041;-75
2022/07/27 06:56:02;;;;;;;6.25;5.20;;;;;;;34.36;27.83;98125.31;5073285;28;20029;-75
2022/07/27 06:58:31;;;;;;;3.80;3.20;;;;;;;34.19;28.70;98124.41;5072939;28;20041;-75
2022/07/27 07:00:58;;;;;;;7.78;5.40;;;;;;;34.13;27.40;98115.00;5073257;28;20048;-75
2022/07/27 07:03:24;;;;;;;6.82;5.50;;;;;;;33.74;28.49;98123.88;5073027;28;20077;-75
2022/07/27 07:05:50;;;;;;;7.90;5.80;;;;;;;33.58;29.76;98123.66;5072995;28;20107;-75
2022/07/27 07:08:16;;;;;;;8.30;6.05;;;;;;;33.63;29.17;98131.50;5054691;28;20504;-75
2022/07/27 07:10:44;;;;;;;8.20;7.30;;;;;;;33.40;29.52;98136.06;5072995;28;20028;-75
2022/07/27 07:13:10;;;;;;;12.43;7.32;;;;;;;33.74;28.81;98140.97;5073105;28;20032;-75
2022/07/27 07:15:39;;;;;;;10.25;7.20;;;;;;;34.15;28.12;98138.84;5073099;28;20105;-75
2022/07/27 07:18:06;;;;;;;10.55;8.90;;;;;;;34.14;28.25;98140.16;5072883;28;20045;-75
2022/07/27 07:20:33;;;;;;;9.55;7.50;;;;;;;33.92;28.17;98148.41;5072400;28;20024;-75
2022/07/27 07:22:59;;;;;;;10.13;7.38;;;;;;;34.21;28.33;98147.47;5072658;28;20115;-75
2022/07/27 07:25:26;;;;;;;8.88;7.05;;;;;;;33.86;28.57;98144.72;5072721;28;20151;-75
2022/07/27 07:27:53;;;;;;;9.10;7.85;;;;;;;34.21;28.11;98139.72;5073049;28;20028;-75
2022/07/27 07:30:20;;;;;;;8.63;7.72;;;;;;;34.29;28.56;98142.88;5054876;28;20048;-75
2022/07/27 07:32:46;;;;;;;10.35;8.23;;;;;;;33.95;29.87;98148.22;5072866;28;20029;-75
2022/07/27 07:35:12;;;;;;;10.65;8.77;;;;;;;33.57;29.06;98142.78;5072675;28;20364;-75
2022/07/27 07:37:38;;;;;;;11.82;9.90;;;;;;;34.01;28.43;98148.25;5063366;28;20496;-75
2022/07/27 07:40:06;;;;;;;10.05;8.60;;;;;;;34.51;27.92;98149.59;5072522;28;20079;-75
2022/07/27 07:42:44;;;;;;;11.05;8.15;;;;;;;34.87;27.64;98156.66;5066043;28;20035;-75
2022/07/27 07:45:10;;;;;;;9.65;8.75;;;;;;;34.86;26.21;98157.97;5058271;28;20021;-75
2022/07/27 07:47:36;;;;;;;14.02;10.65;;;;;;;34.29;28.24;98159.97;5041179;28;20098;-75
2022/07/27 07:50:02;;;;;;;11.15;9.55;;;;;;;34.29;27.94;98160.78;5052746;28;20112;-75
2022/07/27 07:52:29;;;;;;;10.93;9.63;;;;;;;34.67;27.35;98168.19;5052748;28;20432;-75
2022/07/27 07:54:55;;;;;;;13.32;11.45;;;;;;;34.55;26.44;98164.44;5057271;28;20033;-75
2022/07/27 07:57:21;;;;;;;14.85;10.52;;;;;;;33.94;27.10;98169.41;5054794;28;20485;-75
2022/07/27 07:59:47;;;;;;;13.43;11.60;;;;;;;33.31;29.35;98188.22;5072896;28;20033;-75
2022/07/27 08:02:13;;;;;;;13.25;10.48;;;;;;;33.40;28.46;98196.63;5072574;28;20116;-75
2022/07/27 08:04:39;;;;;;;11.48;10.27;;;;;;;33.07;29.23;98189.66;5057310;28;20034;-75
2022/07/27 08:07:05;;;;;;;14.32;11.60;;;;;;;33.07;30.57;98192.50;5058741;28;20044;-77
2022/07/27 08:09:31;;;;;;;12.77;10.60;;;;;;;33.09;29.93;98184.25;5075939;28;20036;-77
2022/07/27 08:11:57;;;;;;;14.43;12.02;;;;;;;32.86;31.46;98176.63;5075807;28;20040;-77
2022/07/27 08:14:25;;;;;;;15.43;12.80;;;;;;;33.73;28.67;98173.56;5076466;28;20039;-77
2022/07/27 08:16:51;;;;;;;14.85;10.73;;;;;;;33.92;28.24;98172.00;5076197;28;20056;-75
2022/07/27 08:19:17;;;;;;;15.68;11.45;;;;;;;34.60;27.17;98182.88;5057839;28;20044;-75
2022/07/27 08:21:43;;;;;;;11.70;10.38;;;;;;;34.00;28.71;98178.81;5064358;28;20037;-75
2022/07/27 08:24:10;;;;;;;13.65;12.20;;;;;;;33.95;28.21;98170.22;5055720;28;20025;-75
2022/07/27 08:26:36;;;;;;;11.73;10.52;;;;;;;33.78;27.66;98172.06;5056010;28;20044;-75
2022/07/27 08:29:02;;;;;;;14.65;11.43;;;;;;;34.70;27.37;98175.72;5060315;28;20029;-75
2022/07/27 08:31:28;;;;;;;11.38;10.18;;;;;;;34.51;27.47;98172.41;5075489;28;20108;-77
2022/07/27 08:33:54;;;;;;;14.98;12.73;;;;;;;33.08;29.90;98165.59;5075592;28;20029;-77
2022/07/27 08:36:20;;;;;;;17.30;13.20;;;;;;;34.26;27.07;98166.72;5071338;28;20052;-75
2022/07/27 08:38:46;;;;;;;12.55;11.23;;;;;;;34.91;26.10;98165.81;5055756;28;20032;-75
2022/07/27 08:41:14;;;;;;;11.95;10.05;;;;;;;35.55;25.64;98175.88;5055639;28;20060;-75
2022/07/27 08:43:45;;;;;;;12.40;9.85;;;;;;;36.21;24.99;98172.56;5055444;28;20108;-75
2022/07/27 08:46:11;;;;;;;;;;;;;;;36.52;25.12;98178.13;5062703;28;20124;-75
2022/07/27 08:48:38;;;;;;;7.88;7.07;;;;;;;36.74;24.48;98181.78;5074769;28;19916;-75
2022/07/27 08:51:07;;;;;;;8.93;7.15;;;;;;;37.07;24.63;98178.16;5075279;28;20033;-75
2022/07/27 08:53:34;;;;;;;9.27;6.70;;;;;;;37.34;24.04;98173.72;5075380;28;20050;-75
2022/07/27 08:56:01;;;;;;;8.48;6.70;;;;;;;37.17;24.05;98168.00;5075500;28;20031;-75
2022/07/27 08:58:27;;;;;;;9.50;7.28;;;;;;;36.65;24.83;98164.09;5075294;28;20376;-75
2022/07/27 09:00:53;;;;;;;8.35;7.45;;;;;;;36.13;25.14;98166.53;5057121;28;20459;-75
2022/07/27 09:03:21;;;;;;;8.65;7.75;;;;;;;36.29;25.57;98162.19;5074773;28;20111;-75
2022/07/27 09:05:53;;;;;;;10.35;8.15;;;;;;;36.17;24.81;98169.16;5075276;28;20040;-75
2022/07/27 09:08:25;;;;;;;10.50;6.90;;;;;;;36.34;25.00;98170.75;5087686;28;20032;-75
2022/07/27 09:10:53;;;;;;;8.95;6.68;;;;;;;36.42;25.18;98177.56;5095202;28;20057;-76
2022/07/27 09:13:24;;;;;;;7.00;6.30;;;;;;;36.94;25.07;98175.06;5079250;28;20384;-75
2022/07/27 09:15:58;;;;;;;9.02;6.15;;;;;;;37.41;24.56;98175.28;5052199;28;20072;-75
2022/07/27 09:18:29;;;;;;;8.80;6.30;;;;;;;37.68;23.52;98171.56;5054834;28;20043;-75
2022/07/27 09:21:22;;;;;;;6.55;5.55;;;;;;;37.65;24.20;98159.06;5067721;28;20039;-75
2022/07/27 09:23:52;;;;;;;6.50;5.68;;;;;;;37.77;23.63;98159.81;5074651;28;20036;-76
2022/07/27 09:26:24;;;;;;;5.85;5.25;;;;;;;37.43;24.38;98162.00;5074952;28;20086;-76
2022/07/27 09:28:56;;;;;;;6.55;5.15;;;;;;;38.00;24.37;98161.31;5074909;28;20381;-76
2022/07/27 09:31:23;;;;;;;5.25;4.72;;;;;;;38.58;23.04;98157.06;5074642;28;20438;-76
2022/07/27 09:33:51;;;;;;;6.18;4.88;;;;;;;38.62;23.09;98160.44;5055234;28;20043;-76
2022/07/27 09:36:21;;;;;;;5.53;4.88;;;;;;;38.90;22.63;98156.59;5054422;28;20033;-76
2022/07/27 09:39:04;;;;;;;4.53;4.13;;;;;;;39.03;22.28;98154.66;5037796;28;20037;-76
2022/07/27 09:41:45;;;;;;;9.02;5.50;;;;;;;38.03;23.56;98154.50;5068436;28;20036;-76
2022/07/27 09:44:12;;;;;;;8.27;5.93;;;;;;;36.57;26.21;98146.63;5073914;28;20036;-76
2022/07/27 09:46:40;;;;;;;5.65;5.20;;;;;;;35.66;25.87;98151.00;5074320;28;20111;-76
2022/07/27 09:49:25;;;;;;;5.18;4.78;;;;;;;36.67;24.99;98141.44;5074289;28;20048;-76
2022/07/27 09:51:52;;;;;;;6.50;5.47;;;;;;;36.91;25.39;98138.06;5074486;28;20384;-76
2022/07/27 09:54:19;;;;;;;4.57;4.25;;;;;;;37.35;23.49;98133.09;5073961;28;20487;-76
2022/07/27 09:56:56;;;;;;;6.78;6.05;;;;;;;37.37;23.75;98133.38;5074064;28;20119;-75
2022/07/27 09:59:22;;;;;;;6.20;5.60;;;;;;;37.56;25.10;98132.78;5054153;28;20043;-76
2022/07/27 10:01:48;;;;;;;5.22;4.72;;;;;;;38.51;24.13;98128.19;5036042;28;20493;-76
2022/07/27 10:04:14;;;;;;;5.18;4.68;;;;;;;39.21;23.34;98133.09;5053903;28;20384;-76
2022/07/27 10:06:41;;;;;;;6.13;4.68;;;;;;;39.61;22.05;98123.53;5053649;28;20099;-76
2022/07/27 10:09:08;;;;;;;4.72;4.28;;;;;;;39.44;22.11;98125.03;5053926;28;20055;-76
2022/07/27 10:11:35;;;;;;;6.35;5.75;;;;;;;38.73;22.54;98128.03;5063833;28;20039;-76
2022/07/27 10:14:01;;;;;;;6.38;5.40;;;;;;;38.40;22.59;98133.97;5073245;28;20028;-76
2022/07/27 10:16:30;;;;;;;5.13;4.50;;;;;;;38.88;22.44;98139.91;5073526;28;20124;-76
2022/07/27 10:19:05;;;;;;;5.82;5.13;;;;;;;38.82;22.80;98138.38;5073556;28;20045;-76
2022/07/27 10:21:36;;;;;;;5.00;4.60;;;;;;;38.28;24.12;98144.75;5073955;28;20082;-76
2022/07/27 10:24:05;;;;;;;5.13;4.63;;;;;;;38.89;21.82;98129.97;5073437;28;20025;-76
2022/07/27 10:26:36;;;;;;;4.20;3.90;;;;;;;39.37;22.41;98135.03;5073435;28;20035;-76
2022/07/27 10:29:03;;;;;;;;;;;;;;;39.43;22.17;98127.13;5089200;28;20132;-76
2022/07/27 10:31:38;;;;;;;9.25;4.22;;;;;;;39.02;21.11;98130.13;5065063;28;19999;-76
2022/07/27 10:34:07;;;;;;;5.85;3.40;;;;;;;38.57;21.66;98132.56;5053375;28;20025;-76
2022/07/27 10:36:33;;;;;;;3.20;2.90;;;;;;;38.77;21.46;98137.13;5053728;28;20037;-76
2022/07/27 10:39:05;;;;;;;3.83;3.40;;;;;;;39.01;21.48;98130.66;5053391;28;20031;-76
2022/07/27 10:41:33;;;;;;;3.10;2.90;;;;;;;39.42;22.08;98136.28;5035762;28;20045;-76
2022/07/27 10:44:17;;;;;;;4.03;3.38;;;;;;;37.89;22.56;98133.47;5053104;28;20037;-76
2022/07/27 10:46:44;;;;;;;2.97;2.70;;;;;;;37.81;22.66;98132.41;5072714;28;20547;-76
2022/07/27 10:49:21;;;;;;;3.30;3.00;;;;;;;37.77;22.92;98134.00;5073066;28;20397;-76
2022/07/27 10:51:48;;;;;;;2.85;2.50;;;;;;;38.28;22.05;98130.41;5073532;28;20036;-76
2022/07/27 10:54:26;;;;;;;2.90;2.53;;;;;;;38.63;22.29;98136.16;5073278;28;20378;-76
2022/07/27 10:56:56;;;;;;;3.28;3.00;;;;;;;38.76;21.81;98140.53;5073015;28;20043;-76
2022/07/27 10:59:37;;;;;;;3.35;2.67;;;;;;;38.97;20.77;98144.53;5088689;28;20064;-76
2022/07/27 11:02:06;;;;;;;2.38;2.17;;;;;;;38.35;23.39;98138.44;5072967;28;20032;-76
2022/07/27 11:04:33;;;;;;;3.28;2.97;;;;;;;38.10;21.82;98138.84;5073029;28;20485;-76
2022/07/27 11:07:00;;;;;;;2.53;2.33;;;;;;;39.11;21.68;98135.53;5072872;28;20028;-76
2022/07/27 11:09:38;;;;;;;3.00;2.50;;;;;;;38.89;21.21;98140.69;5055092;28;20400;-76
2022/07/27 11:12:05;;;;;;;2.75;2.25;;;;;;;38.92;21.45;98140.41;5072924;28;20138;-76
2022/07/27 11:14:45;;;;;;;2.10;1.92;;;;;;;39.03;21.31;98133.75;5073053;28;20132;-75
2022/07/27 11:17:12;;;;;;;2.30;2.10;;;;;;;38.35;20.52;98123.31;5072852;28;20024;-76
2022/07/27 11:19:38;;;;;;;2.40;2.00;;;;;;;38.87;21.60;98117.47;5072985;28;20056;-76
2022/07/27 11:22:04;;;;;;;2.42;2.13;;;;;;;38.61;22.60;98115.81;5072694;28;20082;-76
2022/07/27 11:24:32;;;;;;;2.13;1.80;;;;;;;38.63;21.69;98113.19;5073203;28;20404;-76
2022/07/27 11:26:58;;;;;;;2.58;2.38;;;;;;;38.36;20.92;98114.19;5072756;28;20036;-76
2022/07/27 11:29:25;;;;;;;3.22;2.67;;;;;;;38.46;20.51;98106.78;5071881;28;20036;-76
2022/07/27 11:31:54;;;;;;;2.70;2.30;;;;;;;37.97;20.38;98100.06;5066070;28;20036;-76
2022/07/27 11:34:47;;;;;;;1.98;1.88;;;;;;;38.48;20.35;98097.69;5053005;28;20036;-76